Terminal Aerodrome Forecast
Issued by NWS

Home | Current Version | Previous Version | Text Only | Print | Product List | Glossary On
Versions: 1 2 3 4 5 6 7 8 9 10 11 12 13 14 15 16 17 18 19 20 21 22 23 24 25 26 27
000
FTUS45 KCYS 171100
TAFRWL
TAF
KRWL 171124Z 1712/1812 VRB06KT P6SM FEW120
     FM171700 25012G18KT P6SM SCT120
     FM180200 25005KT P6SM FEW150=

USA.gov is the U.S. government's official web portal to all federal, state and local government web resources and services.